Terminal Aerodrome Forecast
Issued by NWS

Home | Current Version | Previous Version | Text Only | Print | Product List | Glossary On
Versions: 1 2 3 4 5 6 7 8 9 10 11 12 13 14 15 16 17 18 19 20 21 22 23 24 25 26
000
FTUS43 KDLH 192000 AAB
TAFBRD
TAF AMD
KBRD 192042Z 1921/2018 21012KT P6SM SCT025 BKN050
      TEMPO 1921/1924 25008KT
     FM200000 20005KT P6SM FEW200
      TEMPO 2008/2012 2SM BR SCT010
     FM201400 18014KT P6SM SCT050 BKN100=

USA.gov is the U.S. government's official web portal to all federal, state and local government web resources and services.